KSMQ

Details ICAO KSMQ
Name SOMERSET
Region United States
Timezone America/New_York (UTC-4.0)
Plans Departing 11
Arriving 9
Stats Elevation 105 ft / 32 m (AMSL)
Location 40.626010° -74.670254°
Runways 3
Magnetic Variation 12.526° W
Sunrise 2018-05-24 09:35:57 UTC / 2018-05-24 05:35:57 Local
Sunset 2018-05-25 00:18:00 UTC / 2018-05-24 20:18:00 Local
Advertisement - Login to hide

Runways

ID Width Length Bearing (true) Bearing (mag) Surface Threshold Offset Overrun Length
08 100 ft / 30 m 2,196 ft / 669 m 68.67° 81.20° Dirt 0 ft / 0 m 0 ft / 0 m
12 65 ft / 20 m 2,729 ft / 832 m 109.02° 121.55° Asphalt 0 ft / 0 m 150 ft / 46 m
17 200 ft / 61 m 1,824 ft / 556 m 166.58° 179.11° Grass 0 ft / 0 m 0 ft / 0 m
26 100 ft / 30 m 2,196 ft / 669 m 248.67° 261.20° Dirt 0 ft / 0 m 0 ft / 0 m
30 65 ft / 20 m 2,729 ft / 832 m 289.02° 301.55° Asphalt 600 ft / 183 m 125 ft / 38 m
35 200 ft / 61 m 1,824 ft / 556 m 346.58° 359.11° Grass 0 ft / 0 m 0 ft / 0 m

Map

Weather


0- 5 10 15 20 25 30 35+ Temperature / ° C

Clouds and Precipitation
Forecast for 2018-05-24 12:00 UTC. Updated an hour ago

Ground ~20,000 ft ~40,000 ft Winds

METAR

KSMQ 241153Z AUTO 33004KT 10SM CLR 18/14 A3013 RMK AO2 SLP202 T01830139 10183 20106 51024

TAF

Not found

Frequencies

Recorded 120.60 MHz ASOS
Approach 132.80 MHz NEW YORK APP/DEP
Unicom 123.00 MHz CTAF/UNICOM
Warning: Do not use this data for real-world aviation or navigation. No guarantee of current accuracy is given.